sensor_id;sensor_type;location;lat;lon;timestamp;temperature;humidity
1447;DHT22;717;51.522;7.266;2022-10-19T00:01:46;16.70;99.70
1447;DHT22;717;51.522;7.266;2022-10-19T00:04:13;16.70;99.70
1447;DHT22;717;51.522;7.266;2022-10-19T00:06:43;16.70;99.80
1447;DHT22;717;51.522;7.266;2022-10-19T00:09:12;16.70;99.70
1447;DHT22;717;51.522;7.266;2022-10-19T00:11:41;16.70;99.70
1447;DHT22;717;51.522;7.266;2022-10-19T00:14:11;16.60;99.60
1447;DHT22;717;51.522;7.266;2022-10-19T00:16:39;16.60;99.40
1447;DHT22;717;51.522;7.266;2022-10-19T00:19:10;16.60;99.40
1447;DHT22;717;51.522;7.266;2022-10-19T00:21:37;16.60;99.40
1447;DHT22;717;51.522;7.266;2022-10-19T00:24:05;16.60;99.40
1447;DHT22;717;51.522;7.266;2022-10-19T00:26:32;16.50;99.40
1447;DHT22;717;51.522;7.266;2022-10-19T00:28:59;16.50;99.50
1447;DHT22;717;51.522;7.266;2022-10-19T00:31:27;16.50;99.50
1447;DHT22;717;51.522;7.266;2022-10-19T00:33:55;16.50;99.60
1447;DHT22;717;51.522;7.266;2022-10-19T00:36:23;16.50;99.50
1447;DHT22;717;51.522;7.266;2022-10-19T00:38:52;16.50;99.60
1447;DHT22;717;51.522;7.266;2022-10-19T00:41:21;16.40;99.50
1447;DHT22;717;51.522;7.266;2022-10-19T00:43:54;16.40;99.50
1447;DHT22;717;51.522;7.266;2022-10-19T00:46:22;16.40;99.50
1447;DHT22;717;51.522;7.266;2022-10-19T00:48:51;16.40;99.60
1447;DHT22;717;51.522;7.266;2022-10-19T00:51:19;16.40;99.60
1447;DHT22;717;51.522;7.266;2022-10-19T00:53:46;16.40;99.60
1447;DHT22;717;51.522;7.266;2022-10-19T00:56:14;16.30;99.60
1447;DHT22;717;51.522;7.266;2022-10-19T00:58:44;16.30;99.60
1447;DHT22;717;51.522;7.266;2022-10-19T01:01:20;16.30;99.70
1447;DHT22;717;51.522;7.266;2022-10-19T01:03:48;16.30;99.70
1447;DHT22;717;51.522;7.266;2022-10-19T01:06:16;16.30;99.50
1447;DHT22;717;51.522;7.266;2022-10-19T01:08:43;16.30;99.40
1447;DHT22;717;51.522;7.266;2022-10-19T01:11:38;16.30;99.50
1447;DHT22;717;51.522;7.266;2022-10-19T01:14:19;16.20;99.90
1447;DHT22;717;51.522;7.266;2022-10-19T01:16:53;16.20;99.50
1447;DHT22;717;51.522;7.266;2022-10-19T01:19:40;16.20;99.50
1447;DHT22;717;51.522;7.266;2022-10-19T01:22:16;16.10;99.70
1447;DHT22;717;51.522;7.266;2022-10-19T01:24:57;16.10;99.50
1447;DHT22;717;51.522;7.266;2022-10-19T01:27:47;16.10;99.70
1447;DHT22;717;51.522;7.266;2022-10-19T01:30:22;16.10;99.80
1447;DHT22;717;51.522;7.266;2022-10-19T01:33:04;16.10;99.60
1447;DHT22;717;51.522;7.266;2022-10-19T01:35:38;16.10;99.70
1447;DHT22;717;51.522;7.266;2022-10-19T01:38:14;16.10;99.70
1447;DHT22;717;51.522;7.266;2022-10-19T01:40:53;16.00;99.70
1447;DHT22;717;51.522;7.266;2022-10-19T01:43:35;16.00;99.90
1447;DHT22;717;51.522;7.266;2022-10-19T01:46:08;16.00;99.70
1447;DHT22;717;51.522;7.266;2022-10-19T01:48:39;16.10;99.80
1447;DHT22;717;51.522;7.266;2022-10-19T01:51:10;16.00;99.80
1447;DHT22;717;51.522;7.266;2022-10-19T01:53:41;16.00;99.90
1447;DHT22;717;51.522;7.266;2022-10-19T01:56:11;16.00;99.90
1447;DHT22;717;51.522;7.266;2022-10-19T01:58:40;16.00;99.90
1447;DHT22;717;51.522;7.266;2022-10-19T02:01:10;16.00;99.90
1447;DHT22;717;51.522;7.266;2022-10-19T02:03:39;16.00;99.90
1447;DHT22;717;51.522;7.266;2022-10-19T02:06:08;16.00;99.90
1447;DHT22;717;51.522;7.266;2022-10-19T02:08:39;16.00;99.90
1447;DHT22;717;51.522;7.266;2022-10-19T02:11:07;16.00;99.90
1447;DHT22;717;51.522;7.266;2022-10-19T02:13:35;16.00;99.90
1447;DHT22;717;51.522;7.266;2022-10-19T02:16:06;16.00;99.90
1447;DHT22;717;51.522;7.266;2022-10-19T02:18:39;16.00;99.90
1447;DHT22;717;51.522;7.266;2022-10-19T02:21:08;15.90;99.90
1447;DHT22;717;51.522;7.266;2022-10-19T02:23:35;15.90;99.90
1447;DHT22;717;51.522;7.266;2022-10-19T02:26:02;15.90;99.90
1447;DHT22;717;51.522;7.266;2022-10-19T02:28:29;15.90;99.90
1447;DHT22;717;51.522;7.266;2022-10-19T02:30:57;15.90;99.90
1447;DHT22;717;51.522;7.266;2022-10-19T02:33:25;15.90;99.90
1447;DHT22;717;51.522;7.266;2022-10-19T02:35:53;15.90;99.90
1447;DHT22;717;51.522;7.266;2022-10-19T02:38:21;15.90;99.90
1447;DHT22;717;51.522;7.266;2022-10-19T02:40:53;15.90;99.90
1447;DHT22;717;51.522;7.266;2022-10-19T02:43:24;15.90;99.90
1447;DHT22;717;51.522;7.266;2022-10-19T02:45:58;15.80;99.90
1447;DHT22;717;51.522;7.266;2022-10-19T02:48:28;15.80;99.90
1447;DHT22;717;51.522;7.266;2022-10-19T02:50:57;15.80;99.90
1447;DHT22;717;51.522;7.266;2022-10-19T02:53:24;15.80;99.90
1447;DHT22;717;51.522;7.266;2022-10-19T02:55:51;15.80;99.90
1447;DHT22;717;51.522;7.266;2022-10-19T02:58:18;15.80;99.90
1447;DHT22;717;51.522;7.266;2022-10-19T03:00:44;15.80;99.90
1447;DHT22;717;51.522;7.266;2022-10-19T03:03:11;15.80;99.90
1447;DHT22;717;51.522;7.266;2022-10-19T03:05:38;15.80;99.90
1447;DHT22;717;51.522;7.266;2022-10-19T03:08:06;15.80;99.90
1447;DHT22;717;51.522;7.266;2022-10-19T03:10:33;15.80;99.90
1447;DHT22;717;51.522;7.266;2022-10-19T03:13:00;15.70;99.90
1447;DHT22;717;51.522;7.266;2022-10-19T03:15:26;15.70;99.90
1447;DHT22;717;51.522;7.266;2022-10-19T03:17:54;15.80;99.90
1447;DHT22;717;51.522;7.266;2022-10-19T03:20:22;15.70;99.90
1447;DHT22;717;51.522;7.266;2022-10-19T03:22:49;15.70;99.90
1447;DHT22;717;51.522;7.266;2022-10-19T03:25:17;15.70;99.90
1447;DHT22;717;51.522;7.266;2022-10-19T03:27:44;15.70;99.90
1447;DHT22;717;51.522;7.266;2022-10-19T03:30:11;15.70;99.90
1447;DHT22;717;51.522;7.266;2022-10-19T03:32:38;15.70;99.90
1447;DHT22;717;51.522;7.266;2022-10-19T03:35:06;15.70;99.90
1447;DHT22;717;51.522;7.266;2022-10-19T03:37:33;15.70;99.90
1447;DHT22;717;51.522;7.266;2022-10-19T03:39:59;15.70;99.90
1447;DHT22;717;51.522;7.266;2022-10-19T03:42:28;15.70;99.90
1447;DHT22;717;51.522;7.266;2022-10-19T03:44:54;15.70;99.90
1447;DHT22;717;51.522;7.266;2022-10-19T03:47:21;15.60;99.90
1447;DHT22;717;51.522;7.266;2022-10-19T03:49:48;15.60;99.90
1447;DHT22;717;51.522;7.266;2022-10-19T03:52:16;15.60;99.90
1447;DHT22;717;51.522;7.266;2022-10-19T03:54:44;15.60;99.90
1447;DHT22;717;51.522;7.266;2022-10-19T03:57:11;15.60;99.90
1447;DHT22;717;51.522;7.266;2022-10-19T03:59:39;15.60;99.90
1447;DHT22;717;51.522;7.266;2022-10-19T04:02:06;15.60;99.90
1447;DHT22;717;51.522;7.266;2022-10-19T04:04:33;15.60;99.90
1447;DHT22;717;51.522;7.266;2022-10-19T04:07:00;15.60;99.90
1447;DHT22;717;51.522;7.266;2022-10-19T04:09:27;15.60;99.90
1447;DHT22;717;51.522;7.266;2022-10-19T04:11:54;15.60;99.90
1447;DHT22;717;51.522;7.266;2022-10-19T04:14:21;15.60;99.90
1447;DHT22;717;51.522;7.266;2022-10-19T04:16:49;15.50;99.90
1447;DHT22;717;51.522;7.266;2022-10-19T04:19:16;15.50;99.90
1447;DHT22;717;51.522;7.266;2022-10-19T04:21:46;15.50;99.90
1447;DHT22;717;51.522;7.266;2022-10-19T04:24:14;15.50;99.90
1447;DHT22;717;51.522;7.266;2022-10-19T04:26:43;15.50;99.90
1447;DHT22;717;51.522;7.266;2022-10-19T04:29:11;15.50;99.90
1447;DHT22;717;51.522;7.266;2022-10-19T04:31:39;15.50;99.90
1447;DHT22;717;51.522;7.266;2022-10-19T04:34:07;15.50;99.90
1447;DHT22;717;51.522;7.266;2022-10-19T04:36:35;15.50;99.90
1447;DHT22;717;51.522;7.266;2022-10-19T04:39:02;15.50;99.90
1447;DHT22;717;51.522;7.266;2022-10-19T04:41:29;15.50;99.90
1447;DHT22;717;51.522;7.266;2022-10-19T04:43:58;15.50;99.90
1447;DHT22;717;51.522;7.266;2022-10-19T04:46:25;15.50;99.90
1447;DHT22;717;51.522;7.266;2022-10-19T04:48:57;15.50;99.90
1447;DHT22;717;51.522;7.266;2022-10-19T04:51:26;15.50;99.90
1447;DHT22;717;51.522;7.266;2022-10-19T04:53:53;15.50;99.90
1447;DHT22;717;51.522;7.266;2022-10-19T04:56:23;15.50;99.90
1447;DHT22;717;51.522;7.266;2022-10-19T04:58:53;15.50;99.90
1447;DHT22;717;51.522;7.266;2022-10-19T05:01:21;15.50;99.90
1447;DHT22;717;51.522;7.266;2022-10-19T05:03:52;15.50;99.90
1447;DHT22;717;51.522;7.266;2022-10-19T05:06:19;15.50;99.90
1447;DHT22;717;51.522;7.266;2022-10-19T05:08:48;15.50;99.90
1447;DHT22;717;51.522;7.266;2022-10-19T05:11:16;15.40;99.90
1447;DHT22;717;51.522;7.266;2022-10-19T05:13:44;15.40;99.90
1447;DHT22;717;51.522;7.266;2022-10-19T05:16:13;15.50;99.90
1447;DHT22;717;51.522;7.266;2022-10-19T05:18:40;15.50;99.90
1447;DHT22;717;51.522;7.266;2022-10-19T05:21:09;15.50;99.90
1447;DHT22;717;51.522;7.266;2022-10-19T05:23:37;15.50;99.90
1447;DHT22;717;51.522;7.266;2022-10-19T05:26:06;15.40;99.90
1447;DHT22;717;51.522;7.266;2022-10-19T05:28:34;15.40;99.90
1447;DHT22;717;51.522;7.266;2022-10-19T05:31:06;15.50;99.90
1447;DHT22;717;51.522;7.266;2022-10-19T05:33:33;15.40;99.90
1447;DHT22;717;51.522;7.266;2022-10-19T05:36:12;15.40;99.90
1447;DHT22;717;51.522;7.266;2022-10-19T05:38:39;15.40;99.90
1447;DHT22;717;51.522;7.266;2022-10-19T05:41:07;15.40;99.90
1447;DHT22;717;51.522;7.266;2022-10-19T05:43:34;15.30;99.90
1447;DHT22;717;51.522;7.266;2022-10-19T05:46:05;15.40;99.90
1447;DHT22;717;51.522;7.266;2022-10-19T05:48:33;15.40;99.90
1447;DHT22;717;51.522;7.266;2022-10-19T05:51:00;15.40;99.90
1447;DHT22;717;51.522;7.266;2022-10-19T05:53:28;15.30;99.90
1447;DHT22;717;51.522;7.266;2022-10-19T05:55:55;15.40;99.90
1447;DHT22;717;51.522;7.266;2022-10-19T05:58:23;15.30;99.90
1447;DHT22;717;51.522;7.266;2022-10-19T06:00:51;15.30;99.90
1447;DHT22;717;51.522;7.266;2022-10-19T06:03:19;15.40;99.90
1447;DHT22;717;51.522;7.266;2022-10-19T06:05:47;15.30;99.90
1447;DHT22;717;51.522;7.266;2022-10-19T06:08:14;15.30;99.90
1447;DHT22;717;51.522;7.266;2022-10-19T06:10:41;15.30;99.90
1447;DHT22;717;51.522;7.266;2022-10-19T06:13:08;15.40;99.90
1447;DHT22;717;51.522;7.266;2022-10-19T06:15:36;15.30;99.90
1447;DHT22;717;51.522;7.266;2022-10-19T06:18:04;15.30;99.90
1447;DHT22;717;51.522;7.266;2022-10-19T06:20:33;15.30;99.90
1447;DHT22;717;51.522;7.266;2022-10-19T06:23:00;15.40;99.90
1447;DHT22;717;51.522;7.266;2022-10-19T06:25:28;15.30;99.90
1447;DHT22;717;51.522;7.266;2022-10-19T06:27:56;15.30;99.90
1447;DHT22;717;51.522;7.266;2022-10-19T06:30:23;15.30;99.90
1447;DHT22;717;51.522;7.266;2022-10-19T06:32:51;15.30;99.90
1447;DHT22;717;51.522;7.266;2022-10-19T06:35:19;15.40;99.90
1447;DHT22;717;51.522;7.266;2022-10-19T06:37:46;15.40;99.90
1447;DHT22;717;51.522;7.266;2022-10-19T06:40:13;15.40;99.90
1447;DHT22;717;51.522;7.266;2022-10-19T06:42:40;15.40;99.90
1447;DHT22;717;51.522;7.266;2022-10-19T06:45:08;15.30;99.90
1447;DHT22;717;51.522;7.266;2022-10-19T06:47:36;15.30;99.90
1447;DHT22;717;51.522;7.266;2022-10-19T06:50:05;15.40;99.90
1447;DHT22;717;51.522;7.266;2022-10-19T06:52:33;15.40;99.90
1447;DHT22;717;51.522;7.266;2022-10-19T06:55:00;15.40;99.90
1447;DHT22;717;51.522;7.266;2022-10-19T06:57:27;15.40;99.90
1447;DHT22;717;51.522;7.266;2022-10-19T06:59:54;15.30;99.90
1447;DHT22;717;51.522;7.266;2022-10-19T07:02:21;15.30;99.90
1447;DHT22;717;51.522;7.266;2022-10-19T07:04:48;15.30;99.90
1447;DHT22;717;51.522;7.266;2022-10-19T07:07:17;15.30;99.90
1447;DHT22;717;51.522;7.266;2022-10-19T07:09:44;15.30;99.90
1447;DHT22;717;51.522;7.266;2022-10-19T07:12:10;15.30;99.90
1447;DHT22;717;51.522;7.266;2022-10-19T07:14:37;15.30;99.90
1447;DHT22;717;51.522;7.266;2022-10-19T07:17:04;15.30;99.90
1447;DHT22;717;51.522;7.266;2022-10-19T07:19:32;15.30;99.90
1447;DHT22;717;51.522;7.266;2022-10-19T07:21:59;15.30;99.90
1447;DHT22;717;51.522;7.266;2022-10-19T07:24:27;15.30;99.90
1447;DHT22;717;51.522;7.266;2022-10-19T07:26:54;15.30;99.90
1447;DHT22;717;51.522;7.266;2022-10-19T07:29:21;15.30;99.90
1447;DHT22;717;51.522;7.266;2022-10-19T07:31:48;15.40;99.90
1447;DHT22;717;51.522;7.266;2022-10-19T07:34:15;15.30;99.90
1447;DHT22;717;51.522;7.266;2022-10-19T07:36:45;15.30;99.90
1447;DHT22;717;51.522;7.266;2022-10-19T07:39:13;15.40;99.90
1447;DHT22;717;51.522;7.266;2022-10-19T07:41:43;15.40;99.90
1447;DHT22;717;51.522;7.266;2022-10-19T07:44:10;15.40;99.90
1447;DHT22;717;51.522;7.266;2022-10-19T07:46:37;15.40;99.90
1447;DHT22;717;51.522;7.266;2022-10-19T07:49:07;15.40;99.90
1447;DHT22;717;51.522;7.266;2022-10-19T07:51:34;15.40;99.90
1447;DHT22;717;51.522;7.266;2022-10-19T07:54:02;15.40;99.90
1447;DHT22;717;51.522;7.266;2022-10-19T07:56:29;15.40;99.90
1447;DHT22;717;51.522;7.266;2022-10-19T07:58:59;15.40;99.90
1447;DHT22;717;51.522;7.266;2022-10-19T08:01:27;15.50;99.90
1447;DHT22;717;51.522;7.266;2022-10-19T08:03:56;15.50;99.90
1447;DHT22;717;51.522;7.266;2022-10-19T08:06:23;15.50;99.90
1447;DHT22;717;51.522;7.266;2022-10-19T08:08:51;15.50;99.90
1447;DHT22;717;51.522;7.266;2022-10-19T08:11:21;15.60;99.90
1447;DHT22;717;51.522;7.266;2022-10-19T08:13:48;15.60;99.90
1447;DHT22;717;51.522;7.266;2022-10-19T08:16:25;15.60;99.90
1447;DHT22;717;51.522;7.266;2022-10-19T08:18:55;15.60;99.90
1447;DHT22;717;51.522;7.266;2022-10-19T08:21:23;15.60;99.90
1447;DHT22;717;51.522;7.266;2022-10-19T08:23:50;15.70;99.90
1447;DHT22;717;51.522;7.266;2022-10-19T08:26:17;15.70;99.90
1447;DHT22;717;51.522;7.266;2022-10-19T08:28:43;15.70;99.90
1447;DHT22;717;51.522;7.266;2022-10-19T08:31:12;15.70;99.90
1447;DHT22;717;51.522;7.266;2022-10-19T08:33:41;15.80;99.90
1447;DHT22;717;51.522;7.266;2022-10-19T08:36:09;15.80;99.90
1447;DHT22;717;51.522;7.266;2022-10-19T08:38:37;15.80;99.90
1447;DHT22;717;51.522;7.266;2022-10-19T08:41:20;15.90;99.90
1447;DHT22;717;51.522;7.266;2022-10-19T08:43:57;16.00;99.90
1447;DHT22;717;51.522;7.266;2022-10-19T08:46:30;16.20;99.90
1447;DHT22;717;51.522;7.266;2022-10-19T08:49:01;16.30;99.90
1447;DHT22;717;51.522;7.266;2022-10-19T08:51:37;16.30;99.90
1447;DHT22;717;51.522;7.266;2022-10-19T08:54:08;16.30;99.90
1447;DHT22;717;51.522;7.266;2022-10-19T08:56:43;16.30;99.90
1447;DHT22;717;51.522;7.266;2022-10-19T08:59:20;16.20;99.90
1447;DHT22;717;51.522;7.266;2022-10-19T09:01:54;16.20;99.90
1447;DHT22;717;51.522;7.266;2022-10-19T09:04:26;16.20;99.90
1447;DHT22;717;51.522;7.266;2022-10-19T09:07:02;16.20;99.90
1447;DHT22;717;51.522;7.266;2022-10-19T09:09:36;16.20;99.90
1447;DHT22;717;51.522;7.266;2022-10-19T09:12:06;16.30;99.90
1447;DHT22;717;51.522;7.266;2022-10-19T09:14:37;16.20;99.90
1447;DHT22;717;51.522;7.266;2022-10-19T09:17:11;16.30;99.90
1447;DHT22;717;51.522;7.266;2022-10-19T09:19:40;16.30;99.90
1447;DHT22;717;51.522;7.266;2022-10-19T09:22:13;16.30;99.90
1447;DHT22;717;51.522;7.266;2022-10-19T09:24:46;16.30;99.90
1447;DHT22;717;51.522;7.266;2022-10-19T09:27:19;16.30;99.90
1447;DHT22;717;51.522;7.266;2022-10-19T09:29:50;16.30;99.90
1447;DHT22;717;51.522;7.266;2022-10-19T09:32:21;16.40;99.90
1447;DHT22;717;51.522;7.266;2022-10-19T09:34:54;16.40;99.90
1447;DHT22;717;51.522;7.266;2022-10-19T09:37:23;16.40;99.90
1447;DHT22;717;51.522;7.266;2022-10-19T09:39:50;16.40;99.90
1447;DHT22;717;51.522;7.266;2022-10-19T09:42:21;16.50;99.90
1447;DHT22;717;51.522;7.266;2022-10-19T09:44:50;16.50;99.90
1447;DHT22;717;51.522;7.266;2022-10-19T09:47:32;16.50;99.90
1447;DHT22;717;51.522;7.266;2022-10-19T09:50:15;16.50;99.90
1447;DHT22;717;51.522;7.266;2022-10-19T09:52:44;16.50;99.90
1447;DHT22;717;51.522;7.266;2022-10-19T09:55:24;16.50;99.90
1447;DHT22;717;51.522;7.266;2022-10-19T09:57:59;16.60;99.90
1447;DHT22;717;51.522;7.266;2022-10-19T10:00:33;16.60;99.90
1447;DHT22;717;51.522;7.266;2022-10-19T10:03:00;16.60;99.90
1447;DHT22;717;51.522;7.266;2022-10-19T10:05:33;16.70;99.90
1447;DHT22;717;51.522;7.266;2022-10-19T10:08:01;16.70;99.90
1447;DHT22;717;51.522;7.266;2022-10-19T10:10:30;16.70;99.90
1447;DHT22;717;51.522;7.266;2022-10-19T10:13:00;16.70;99.90
1447;DHT22;717;51.522;7.266;2022-10-19T10:15:34;16.80;99.90
1447;DHT22;717;51.522;7.266;2022-10-19T10:18:02;16.80;99.90
1447;DHT22;717;51.522;7.266;2022-10-19T10:20:30;16.90;99.90
1447;DHT22;717;51.522;7.266;2022-10-19T10:23:00;16.90;99.90
1447;DHT22;717;51.522;7.266;2022-10-19T10:25:29;16.90;99.90
1447;DHT22;717;51.522;7.266;2022-10-19T10:27:59;16.90;99.90
1447;DHT22;717;51.522;7.266;2022-10-19T10:30:33;17.00;99.90
1447;DHT22;717;51.522;7.266;2022-10-19T10:33:01;17.00;99.90
1447;DHT22;717;51.522;7.266;2022-10-19T10:35:31;17.10;99.90
1447;DHT22;717;51.522;7.266;2022-10-19T10:38:15;17.10;99.90
1447;DHT22;717;51.522;7.266;2022-10-19T10:40:49;17.20;99.90
1447;DHT22;717;51.522;7.266;2022-10-19T10:43:19;17.20;99.90
1447;DHT22;717;51.522;7.266;2022-10-19T10:45:48;17.30;99.90
1447;DHT22;717;51.522;7.266;2022-10-19T10:48:24;17.40;99.90
1447;DHT22;717;51.522;7.266;2022-10-19T10:50:52;17.40;99.90
1447;DHT22;717;51.522;7.266;2022-10-19T10:53:35;17.50;99.90
1447;DHT22;717;51.522;7.266;2022-10-19T10:56:04;17.50;99.90
1447;DHT22;717;51.522;7.266;2022-10-19T10:58:37;17.60;99.90
1447;DHT22;717;51.522;7.266;2022-10-19T11:01:23;17.60;99.90
1447;DHT22;717;51.522;7.266;2022-10-19T11:03:56;17.70;99.90
1447;DHT22;717;51.522;7.266;2022-10-19T11:06:25;17.80;99.90
1447;DHT22;717;51.522;7.266;2022-10-19T11:08:58;17.80;99.90
1447;DHT22;717;51.522;7.266;2022-10-19T11:11:34;17.90;99.90
1447;DHT22;717;51.522;7.266;2022-10-19T11:14:27;18.00;99.90
1447;DHT22;717;51.522;7.266;2022-10-19T11:16:58;18.10;99.90
1447;DHT22;717;51.522;7.266;2022-10-19T11:19:34;18.10;99.90
1447;DHT22;717;51.522;7.266;2022-10-19T11:22:07;18.20;99.90
1447;DHT22;717;51.522;7.266;2022-10-19T11:24:46;18.20;99.90
1447;DHT22;717;51.522;7.266;2022-10-19T11:27:23;18.30;99.90
1447;DHT22;717;51.522;7.266;2022-10-19T11:30:03;18.30;99.90
1447;DHT22;717;51.522;7.266;2022-10-19T11:32:38;18.40;99.90
1447;DHT22;717;51.522;7.266;2022-10-19T11:35:31;18.50;99.90
1447;DHT22;717;51.522;7.266;2022-10-19T11:38:07;18.50;99.90
1447;DHT22;717;51.522;7.266;2022-10-19T11:40:44;18.50;99.90
1447;DHT22;717;51.522;7.266;2022-10-19T11:43:19;18.60;99.90
1447;DHT22;717;51.522;7.266;2022-10-19T11:45:58;18.70;99.90
1447;DHT22;717;51.522;7.266;2022-10-19T11:48:46;18.70;99.90
1447;DHT22;717;51.522;7.266;2022-10-19T11:51:23;18.80;99.90
1447;DHT22;717;51.522;7.266;2022-10-19T11:54:00;18.80;99.90
1447;DHT22;717;51.522;7.266;2022-10-19T11:56:35;18.90;99.90
1447;DHT22;717;51.522;7.266;2022-10-19T11:59:11;18.90;99.90
1447;DHT22;717;51.522;7.266;2022-10-19T12:01:49;19.00;99.90
1447;DHT22;717;51.522;7.266;2022-10-19T12:04:34;19.00;99.90
1447;DHT22;717;51.522;7.266;2022-10-19T12:07:17;19.10;99.90
1447;DHT22;717;51.522;7.266;2022-10-19T12:09:55;19.20;99.90
1447;DHT22;717;51.522;7.266;2022-10-19T12:12:31;19.20;99.90
1447;DHT22;717;51.522;7.266;2022-10-19T12:15:12;19.20;99.90
1447;DHT22;717;51.522;7.266;2022-10-19T12:17:45;19.30;99.90
1447;DHT22;717;51.522;7.266;2022-10-19T12:20:20;19.30;99.80
1447;DHT22;717;51.522;7.266;2022-10-19T12:22:48;19.40;99.70
1447;DHT22;717;51.522;7.266;2022-10-19T12:25:17;19.50;99.50
1447;DHT22;717;51.522;7.266;2022-10-19T12:27:47;19.50;99.50
1447;DHT22;717;51.522;7.266;2022-10-19T12:30:17;19.50;99.30
1447;DHT22;717;51.522;7.266;2022-10-19T12:32:55;19.60;99.10
1447;DHT22;717;51.522;7.266;2022-10-19T12:35:34;19.60;99.10
1447;DHT22;717;51.522;7.266;2022-10-19T12:38:09;19.70;99.10
1447;DHT22;717;51.522;7.266;2022-10-19T12:40:44;19.70;99.10
1447;DHT22;717;51.522;7.266;2022-10-19T12:43:18;19.80;99.10
1447;DHT22;717;51.522;7.266;2022-10-19T12:45:51;19.80;99.10
1447;DHT22;717;51.522;7.266;2022-10-19T12:48:22;19.90;99.10
1447;DHT22;717;51.522;7.266;2022-10-19T12:51:02;20.00;99.00
1447;DHT22;717;51.522;7.266;2022-10-19T12:53:31;20.00;98.70
1447;DHT22;717;51.522;7.266;2022-10-19T12:56:02;20.10;98.70
1447;DHT22;717;51.522;7.266;2022-10-19T12:58:35;20.10;98.60
1447;DHT22;717;51.522;7.266;2022-10-19T13:01:04;20.20;98.60
1447;DHT22;717;51.522;7.266;2022-10-19T13:03:33;20.20;98.60
1447;DHT22;717;51.522;7.266;2022-10-19T13:06:08;20.30;98.60
1447;DHT22;717;51.522;7.266;2022-10-19T13:08:40;20.40;98.70
1447;DHT22;717;51.522;7.266;2022-10-19T13:11:10;20.40;98.70
1447;DHT22;717;51.522;7.266;2022-10-19T13:14:04;20.50;98.60
1447;DHT22;717;51.522;7.266;2022-10-19T13:16:55;20.60;98.60
1447;DHT22;717;51.522;7.266;2022-10-19T13:19:22;20.60;98.60
1447;DHT22;717;51.522;7.266;2022-10-19T13:25:18;20.70;98.40
1447;DHT22;717;51.522;7.266;2022-10-19T13:27:46;20.80;98.30
1447;DHT22;717;51.522;7.266;2022-10-19T13:33:52;20.90;98.30
1447;DHT22;717;51.522;7.266;2022-10-19T13:36:20;20.90;98.20
1447;DHT22;717;51.522;7.266;2022-10-19T13:39:13;20.90;98.20
1447;DHT22;717;51.522;7.266;2022-10-19T13:41:47;21.00;98.30
1447;DHT22;717;51.522;7.266;2022-10-19T13:44:22;21.00;97.90
1447;DHT22;717;51.522;7.266;2022-10-19T13:47:16;21.10;97.80
1447;DHT22;717;51.522;7.266;2022-10-19T13:50:05;21.10;97.60
1447;DHT22;717;51.522;7.266;2022-10-19T13:55:53;21.20;97.40
1447;DHT22;717;51.522;7.266;2022-10-19T14:01:53;21.20;97.30
1447;DHT22;717;51.522;7.266;2022-10-19T14:04:33;21.30;97.10
1447;DHT22;717;51.522;7.266;2022-10-19T14:07:07;21.30;97.20
1447;DHT22;717;51.522;7.266;2022-10-19T14:10:05;21.30;97.10
1447;DHT22;717;51.522;7.266;2022-10-19T14:12:35;21.30;96.80
1447;DHT22;717;51.522;7.266;2022-10-19T14:15:22;21.30;96.80
1447;DHT22;717;51.522;7.266;2022-10-19T14:17:49;21.30;96.80
1447;DHT22;717;51.522;7.266;2022-10-19T14:20:29;21.30;96.80
1447;DHT22;717;51.522;7.266;2022-10-19T14:23:16;21.30;96.90
1447;DHT22;717;51.522;7.266;2022-10-19T14:25:49;21.30;96.80
1447;DHT22;717;51.522;7.266;2022-10-19T14:28:16;21.30;96.60
1447;DHT22;717;51.522;7.266;2022-10-19T14:30:43;21.30;96.50
1447;DHT22;717;51.522;7.266;2022-10-19T14:33:13;21.30;96.30
1447;DHT22;717;51.522;7.266;2022-10-19T14:35:44;21.30;96.30
1447;DHT22;717;51.522;7.266;2022-10-19T14:38:18;21.30;96.30
1447;DHT22;717;51.522;7.266;2022-10-19T14:40:46;21.30;96.20
1447;DHT22;717;51.522;7.266;2022-10-19T14:43:19;21.30;96.20
1447;DHT22;717;51.522;7.266;2022-10-19T14:46:01;21.30;96.30
1447;DHT22;717;51.522;7.266;2022-10-19T14:48:28;21.30;96.30
1447;DHT22;717;51.522;7.266;2022-10-19T14:50:56;21.20;96.10
1447;DHT22;717;51.522;7.266;2022-10-19T14:53:32;21.30;96.10
1447;DHT22;717;51.522;7.266;2022-10-19T14:56:03;21.20;96.10
1447;DHT22;717;51.522;7.266;2022-10-19T14:58:36;21.20;96.10
1447;DHT22;717;51.522;7.266;2022-10-19T15:01:05;21.20;96.00
1447;DHT22;717;51.522;7.266;2022-10-19T15:03:32;21.20;96.00
1447;DHT22;717;51.522;7.266;2022-10-19T15:06:02;21.10;95.90
1447;DHT22;717;51.522;7.266;2022-10-19T15:08:34;21.10;95.80
1447;DHT22;717;51.522;7.266;2022-10-19T15:11:05;21.10;95.80
1447;DHT22;717;51.522;7.266;2022-10-19T15:13:37;21.00;95.80
1447;DHT22;717;51.522;7.266;2022-10-19T15:18:48;21.00;95.80
1447;DHT22;717;51.522;7.266;2022-10-19T15:21:19;20.90;95.80
1447;DHT22;717;51.522;7.266;2022-10-19T15:23:48;20.90;95.80
1447;DHT22;717;51.522;7.266;2022-10-19T15:26:19;20.80;95.80
1447;DHT22;717;51.522;7.266;2022-10-19T15:28:46;20.80;95.90
1447;DHT22;717;51.522;7.266;2022-10-19T15:31:16;20.80;95.90
1447;DHT22;717;51.522;7.266;2022-10-19T15:33:49;20.70;95.90
1447;DHT22;717;51.522;7.266;2022-10-19T15:36:17;20.70;96.00
1447;DHT22;717;51.522;7.266;2022-10-19T15:38:47;20.70;96.00
1447;DHT22;717;51.522;7.266;2022-10-19T15:41:18;20.60;95.90
1447;DHT22;717;51.522;7.266;2022-10-19T15:43:48;20.60;95.90
1447;DHT22;717;51.522;7.266;2022-10-19T15:46:30;20.60;96.00
1447;DHT22;717;51.522;7.266;2022-10-19T15:48:59;20.50;96.00
1447;DHT22;717;51.522;7.266;2022-10-19T15:51:32;20.50;96.00
1447;DHT22;717;51.522;7.266;2022-10-19T15:54:02;20.50;96.00
1447;DHT22;717;51.522;7.266;2022-10-19T15:56:32;20.40;95.90
1447;DHT22;717;51.522;7.266;2022-10-19T15:59:00;20.40;95.90
1447;DHT22;717;51.522;7.266;2022-10-19T16:01:30;20.30;95.80
1447;DHT22;717;51.522;7.266;2022-10-19T16:03:58;20.30;95.90
1447;DHT22;717;51.522;7.266;2022-10-19T16:06:26;20.20;95.90
1447;DHT22;717;51.522;7.266;2022-10-19T16:08:53;20.20;95.90
1447;DHT22;717;51.522;7.266;2022-10-19T16:11:22;20.10;95.90
1447;DHT22;717;51.522;7.266;2022-10-19T16:13:49;20.10;95.90
1447;DHT22;717;51.522;7.266;2022-10-19T16:16:20;20.10;95.90
1447;DHT22;717;51.522;7.266;2022-10-19T16:18:48;20.00;95.90
1447;DHT22;717;51.522;7.266;2022-10-19T16:21:15;20.00;95.90
1447;DHT22;717;51.522;7.266;2022-10-19T16:23:41;19.90;95.90
1447;DHT22;717;51.522;7.266;2022-10-19T16:26:10;19.90;95.90
1447;DHT22;717;51.522;7.266;2022-10-19T16:28:38;19.80;95.90
1447;DHT22;717;51.522;7.266;2022-10-19T16:31:05;19.80;96.00
1447;DHT22;717;51.522;7.266;2022-10-19T16:33:32;19.70;95.90
1447;DHT22;717;51.522;7.266;2022-10-19T16:36:03;19.70;96.00
1447;DHT22;717;51.522;7.266;2022-10-19T16:38:30;19.60;95.90
1447;DHT22;717;51.522;7.266;2022-10-19T16:40:59;19.60;95.90
1447;DHT22;717;51.522;7.266;2022-10-19T16:43:26;19.50;95.90
1447;DHT22;717;51.522;7.266;2022-10-19T16:45:55;19.50;95.90
1447;DHT22;717;51.522;7.266;2022-10-19T16:48:22;19.50;96.00
1447;DHT22;717;51.522;7.266;2022-10-19T16:51:26;19.40;96.00
1447;DHT22;717;51.522;7.266;2022-10-19T16:53:55;19.30;96.10
1447;DHT22;717;51.522;7.266;2022-10-19T16:56:25;19.30;96.10
1447;DHT22;717;51.522;7.266;2022-10-19T16:58:53;19.30;96.10